< < Back
Terminal Aerodrome Forecast


Current Version              Previous Versions:   1  2  3  4  5  6  7  8  9  

Terminal Aerodrome Forecast

375
FTUS42 KCHS 251100
TAFSAV
TAF
KSAV 251120Z 2512/2612 34005KT P6SM FEW250
     FM252300 VRB02KT P6SM SKC=

Latest METAR

503
SAUS80 KWBC 251200 RRB
MTRSAV
METAR KSAV 251153Z 00000KT 10SM FEW200 09/07 A3002 RMK AO2 SLP164
T00940072 10111 20089 52007


USA.gov is the U.S. government's official web portal to all federal, state and local government web resources and services.